createdAt,value
2022-08-08T00:00:55.558Z,1019.50
2022-08-08T00:05:10.891Z,1019.49
2022-08-08T00:10:18.079Z,1019.54
2022-08-08T00:15:57.182Z,1019.58
2022-08-08T00:20:32.708Z,1019.58
2022-08-08T00:25:46.379Z,1019.60
2022-08-08T00:31:00.702Z,1019.56
2022-08-08T00:35:54.386Z,1019.59
2022-08-08T00:41:12.382Z,1019.48
2022-08-08T00:46:16.593Z,1019.48
2022-08-08T00:51:18.107Z,1019.51
2022-08-08T00:56:23.917Z,1019.49
2022-08-08T01:01:37.967Z,1019.47
2022-08-08T01:06:37.646Z,1019.37
2022-08-08T01:11:44.864Z,1019.40
2022-08-08T01:16:52.089Z,1019.35
2022-08-08T01:22:09.912Z,1019.39
2022-08-08T01:27:10.637Z,1019.40
2022-08-08T01:32:15.776Z,1019.40
2022-08-08T01:37:21.887Z,1019.44
2022-08-08T01:42:35.783Z,1019.47
2022-08-08T01:48:14.499Z,1019.42
2022-08-08T01:52:56.032Z,1019.48
2022-08-08T01:58:13.342Z,1019.43
2022-08-08T02:02:57.555Z,1019.42
2022-08-08T02:08:04.796Z,1019.45
2022-08-08T02:13:53.336Z,1019.49
2022-08-08T02:18:19.211Z,1019.55
2022-08-08T02:23:31.658Z,1019.53
2022-08-08T02:28:35.027Z,1019.59
2022-08-08T02:33:41.427Z,1019.62
2022-08-08T02:38:49.215Z,1019.69
2022-08-08T02:44:44.853Z,1019.74
2022-08-08T02:49:02.447Z,1019.78
2022-08-08T02:54:09.711Z,1019.76
2022-08-08T02:59:25.959Z,1019.72
2022-08-08T03:05:05.204Z,1019.70
2022-08-08T03:09:31.441Z,1019.68
2022-08-08T03:15:59.702Z,1019.68
2022-08-08T03:19:50.878Z,1019.70
2022-08-08T03:24:57.043Z,1019.79
2022-08-08T03:30:00.202Z,1019.82
2022-08-08T03:35:09.547Z,1019.81
2022-08-08T03:40:30.203Z,1019.81
2022-08-08T03:46:03.033Z,1019.84
2022-08-08T03:50:29.134Z,1019.87
2022-08-08T03:55:57.259Z,1019.86
2022-08-08T04:01:02.657Z,1019.84
2022-08-08T04:05:50.710Z,1019.87
2022-08-08T04:11:00.047Z,1019.91
2022-08-08T04:16:05.633Z,1019.88
2022-08-08T04:21:12.356Z,1019.95
2022-08-08T04:26:19.711Z,1020.02
2022-08-08T04:31:56.650Z,1020.06
2022-08-08T04:36:34.023Z,1020.13
2022-08-08T04:41:43.197Z,1020.23
2022-08-08T04:46:52.504Z,1020.29
2022-08-08T04:51:57.890Z,1020.32
2022-08-08T04:57:04.863Z,1020.34
2022-08-08T05:02:13.509Z,1020.40
2022-08-08T05:07:19.252Z,1020.41
2022-08-08T05:12:28.922Z,1020.38
2022-08-08T05:17:53.668Z,1020.34
2022-08-08T05:22:40.871Z,1020.33
2022-08-08T05:27:48.071Z,1020.35
2022-08-08T05:32:55.222Z,1020.41
2022-08-08T05:38:02.414Z,1020.48
2022-08-08T05:43:40.021Z,1020.49
2022-08-08T05:48:16.899Z,1020.45
2022-08-08T05:54:26.265Z,1020.54
2022-08-08T05:58:33.399Z,1020.50
2022-08-08T06:03:38.558Z,1020.58
2022-08-08T06:08:53.198Z,1020.60
2022-08-08T06:13:52.943Z,1020.66
2022-08-08T06:19:00.184Z,1020.72
2022-08-08T06:24:13.993Z,1020.76
2022-08-08T06:29:49.345Z,1020.78
2022-08-08T06:34:27.391Z,1020.80
2022-08-08T06:39:33.346Z,1020.82
2022-08-08T06:44:42.243Z,1020.86
2022-08-08T06:49:56.173Z,1020.88
2022-08-08T06:54:52.015Z,1020.89
2022-08-08T07:00:10.218Z,1020.90
2022-08-08T07:05:06.476Z,1020.92
2022-08-08T07:10:13.669Z,1020.90
2022-08-08T07:15:32.529Z,1020.97
2022-08-08T07:20:28.400Z,1020.95
2022-08-08T07:25:35.310Z,1020.96
2022-08-08T07:30:42.494Z,1021.00
2022-08-08T07:35:51.258Z,1020.98
2022-08-08T07:40:56.907Z,1020.99
2022-08-08T07:46:17.645Z,1020.99
2022-08-08T07:51:24.355Z,1021.02
2022-08-08T07:56:36.436Z,1021.00
2022-08-08T08:01:27.084Z,1021.01
2022-08-08T08:06:33.063Z,1020.98
2022-08-08T08:11:52.476Z,1021.01
2022-08-08T08:16:48.515Z,1021.00
2022-08-08T08:22:00.674Z,1021.00
2022-08-08T08:27:02.825Z,1020.99
2022-08-08T08:32:09.299Z,1021.01
2022-08-08T08:37:16.500Z,1021.03
2022-08-08T08:42:31.593Z,1021.06
2022-08-08T08:47:33.766Z,1021.08
2022-08-08T08:52:38.167Z,1021.04
2022-08-08T08:57:45.371Z,1021.08
2022-08-08T09:02:52.566Z,1021.11
2022-08-08T09:08:12.799Z,1021.07
2022-08-08T09:13:06.972Z,1021.09
2022-08-08T09:18:14.219Z,1021.09
2022-08-08T09:23:25.739Z,1021.01
2022-08-08T09:28:37.437Z,1021.01
2022-08-08T09:34:15.851Z,1020.99
2022-08-08T09:38:53.110Z,1020.99
2022-08-08T09:44:06.236Z,1021.00
2022-08-08T09:48:57.338Z,1020.97
2022-08-08T09:54:09.661Z,1020.95
2022-08-08T09:59:40.322Z,1020.93
2022-08-08T10:04:38.533Z,1020.85
2022-08-08T10:09:26.189Z,1020.84
2022-08-08T10:14:38.193Z,1020.81
2022-08-08T10:19:46.309Z,1020.74
2022-08-08T10:24:48.048Z,1020.81
2022-08-08T10:29:58.759Z,1020.75
2022-08-08T10:35:02.500Z,1020.73
2022-08-08T10:40:09.780Z,1020.70
2022-08-08T10:45:16.940Z,1020.65
2022-08-08T10:50:24.124Z,1020.64
2022-08-08T10:55:41.700Z,1020.64
2022-08-08T11:00:53.443Z,1020.63
2022-08-08T11:05:45.729Z,1020.67
2022-08-08T11:10:52.985Z,1020.69
2022-08-08T11:16:01.404Z,1020.56
2022-08-08T11:21:09.800Z,1020.60
2022-08-08T11:26:18.734Z,1020.55
2022-08-08T11:31:21.804Z,1020.39
2022-08-08T11:36:29.560Z,1020.42
2022-08-08T11:41:36.193Z,1020.43
2022-08-08T11:46:43.380Z,1020.36
2022-08-08T11:51:52.277Z,1020.39
2022-08-08T11:56:58.488Z,1020.31
2022-08-08T12:02:30.449Z,1020.33
2022-08-08T12:07:16.730Z,1020.23
2022-08-08T12:12:19.482Z,1020.23
2022-08-08T12:17:26.719Z,1020.21
2022-08-08T12:22:44.803Z,1020.17
2022-08-08T12:27:45.548Z,1020.22
2022-08-08T12:32:48.428Z,1020.12
2022-08-08T12:38:02.009Z,1020.15
2022-08-08T12:43:03.791Z,1020.03
2022-08-08T12:48:35.867Z,1020.07
2022-08-08T12:53:17.185Z,1020.01
2022-08-08T12:58:24.458Z,1020.04
2022-08-08T13:03:33.520Z,1019.98
2022-08-08T13:08:38.839Z,1020.01
2022-08-08T13:13:45.995Z,1019.93
2022-08-08T13:18:58.236Z,1019.92
2022-08-08T13:24:00.375Z,1019.94
2022-08-08T13:29:07.566Z,1019.92
2022-08-08T13:34:14.792Z,1019.94
2022-08-08T13:39:22.102Z,1019.82
2022-08-08T13:44:29.256Z,1019.73
2022-08-08T13:50:36.015Z,1019.78
2022-08-08T13:54:44.207Z,1019.71
2022-08-08T13:59:50.791Z,1019.74
2022-08-08T14:04:58.012Z,1019.71
2022-08-08T14:10:11.788Z,1019.73
2022-08-08T14:15:12.453Z,1019.71
2022-08-08T14:20:56.436Z,1019.73
2022-08-08T14:25:26.912Z,1019.74
2022-08-08T14:30:34.103Z,1019.77
2022-08-08T14:35:41.330Z,1019.73
2022-08-08T14:40:48.546Z,1019.73
2022-08-08T14:46:02.963Z,1019.80
2022-08-08T14:51:02.940Z,1019.72
2022-08-08T14:56:10.147Z,1019.72
2022-08-08T15:01:23.767Z,1019.78
2022-08-08T15:06:24.953Z,1019.77
2022-08-08T15:11:43.092Z,1019.78
2022-08-08T15:16:39.385Z,1019.80
2022-08-08T15:21:46.658Z,1019.78
2022-08-08T15:26:53.928Z,1019.74
2022-08-08T15:32:19.947Z,1019.74
2022-08-08T15:37:08.326Z,1019.72
2022-08-08T15:42:31.238Z,1019.76
2022-08-08T15:47:22.875Z,1019.71
2022-08-08T15:52:31.309Z,1019.65
2022-08-08T15:57:39.900Z,1019.68
2022-08-08T16:02:51.188Z,1019.65
2022-08-08T16:07:53.837Z,1019.67
2022-08-08T16:13:15.850Z,1019.72
2022-08-08T16:18:12.102Z,1019.67
2022-08-08T16:23:16.090Z,1019.66
2022-08-08T16:28:33.957Z,1019.67
2022-08-08T16:33:39.412Z,1019.67
2022-08-08T16:38:44.712Z,1019.68
2022-08-08T16:43:49.105Z,1019.65
2022-08-08T16:48:51.308Z,1019.62
2022-08-08T16:55:05.725Z,1019.59
2022-08-08T16:59:05.786Z,1019.59
2022-08-08T17:04:13.063Z,1019.61
2022-08-08T17:09:23.839Z,1019.61
2022-08-08T17:14:34.102Z,1019.67
2022-08-08T17:19:40.894Z,1019.74
2022-08-08T17:24:43.727Z,1019.85
2022-08-08T17:29:56.738Z,1019.85
2022-08-08T17:35:53.858Z,1019.89
2022-08-08T17:40:12.848Z,1019.91
2022-08-08T17:45:14.187Z,1019.99
2022-08-08T17:50:19.767Z,1020.03
2022-08-08T17:56:05.884Z,1020.16
2022-08-08T18:00:39.043Z,1020.18
2022-08-08T18:05:48.064Z,1020.28
2022-08-08T18:10:48.669Z,1020.33
2022-08-08T18:16:04.294Z,1020.43
2022-08-08T18:21:03.155Z,1020.44
2022-08-08T18:26:10.258Z,1020.45
2022-08-08T18:31:17.497Z,1020.49
2022-08-08T18:36:25.473Z,1020.53
2022-08-08T18:41:51.806Z,1020.45
2022-08-08T18:46:54.874Z,1020.55
2022-08-08T18:51:53.734Z,1020.53
2022-08-08T18:56:53.695Z,1020.59
2022-08-08T19:02:27.394Z,1020.65
2022-08-08T19:07:08.106Z,1020.77
2022-08-08T19:12:15.282Z,1020.84
2022-08-08T19:17:28.764Z,1020.87
2022-08-08T19:22:29.696Z,1020.92
2022-08-08T19:27:55.748Z,1021.01
2022-08-08T19:32:44.058Z,1021.05
2022-08-08T19:37:55.367Z,1021.09
2022-08-08T19:42:58.533Z,1021.12
2022-08-08T19:48:05.810Z,1021.09
2022-08-08T19:53:46.754Z,1021.11
2022-08-08T19:58:20.322Z,1021.19
2022-08-08T20:04:01.263Z,1021.22
2022-08-08T20:08:34.931Z,1021.23
2022-08-08T20:14:13.905Z,1021.25
2022-08-08T20:18:52.655Z,1021.25
2022-08-08T20:23:58.201Z,1021.31
2022-08-08T20:29:04.038Z,1021.31
2022-08-08T20:34:29.166Z,1021.35
2022-08-08T20:39:18.465Z,1021.34
2022-08-08T20:44:25.646Z,1021.34
2022-08-08T20:49:39.971Z,1021.35
2022-08-08T20:54:40.037Z,1021.36
2022-08-08T20:59:47.278Z,1021.35
2022-08-08T21:04:54.468Z,1021.33
2022-08-08T21:10:12.473Z,1021.30
2022-08-08T21:15:09.389Z,1021.36
2022-08-08T21:20:16.108Z,1021.36
2022-08-08T21:25:23.339Z,1021.37
2022-08-08T21:30:30.594Z,1021.32
2022-08-08T21:36:17.152Z,1021.31
2022-08-08T21:40:55.658Z,1021.32
2022-08-08T21:48:20.297Z,1021.35
2022-08-08T21:50:59.541Z,1021.34
2022-08-08T21:56:26.642Z,1021.35
2022-08-08T22:01:27.787Z,1021.32
2022-08-08T22:06:30.847Z,1021.29
2022-08-08T22:11:58.837Z,1021.29
2022-08-08T22:16:35.667Z,1021.32
2022-08-08T22:21:42.823Z,1021.34
2022-08-08T22:27:01.232Z,1021.29
2022-08-08T22:32:02.189Z,1021.26
2022-08-08T22:37:05.163Z,1021.30
2022-08-08T22:42:12.359Z,1021.32
2022-08-08T22:47:19.619Z,1021.36
2022-08-08T22:52:33.719Z,1021.31
2022-08-08T22:57:44.117Z,1021.28
2022-08-08T23:02:41.257Z,1021.32
2022-08-08T23:07:57.196Z,1021.29
2022-08-08T23:12:56.125Z,1021.30
2022-08-08T23:18:02.793Z,1021.30
2022-08-08T23:23:09.975Z,1021.23
2022-08-08T23:28:17.684Z,1021.25
2022-08-08T23:34:17.563Z,1021.19
2022-08-08T23:38:31.548Z,1021.22
2022-08-08T23:43:45.832Z,1021.26
2022-08-08T23:49:00.077Z,1021.28
2022-08-08T23:54:05.760Z,1021.23
2022-08-08T23:59:00.476Z,1021.24
